sensor_id;sensor_type;location;lat;lon;timestamp;P1;durP1;ratioP1;P2;durP2;ratioP2
72559;SDS011;62987;52.382;9.752;2023-09-19T00:00:56;3.83;;;1.50;;
72559;SDS011;62987;52.382;9.752;2023-09-19T00:03:25;4.28;;;1.30;;
72559;SDS011;62987;52.382;9.752;2023-09-19T00:05:55;4.50;;;1.40;;
72559;SDS011;62987;52.382;9.752;2023-09-19T00:08:26;5.25;;;1.83;;
72559;SDS011;62987;52.382;9.752;2023-09-19T00:10:55;4.78;;;1.42;;
72559;SDS011;62987;52.382;9.752;2023-09-19T00:13:25;4.65;;;1.65;;
72559;SDS011;62987;52.382;9.752;2023-09-19T00:15:56;3.10;;;1.40;;
72559;SDS011;62987;52.382;9.752;2023-09-19T00:18:25;3.25;;;1.70;;
72559;SDS011;62987;52.382;9.752;2023-09-19T00:20:58;5.22;;;1.90;;
72559;SDS011;62987;52.382;9.752;2023-09-19T00:23:27;3.67;;;1.50;;
72559;SDS011;62987;52.382;9.752;2023-09-19T00:25:58;4.35;;;1.63;;
72559;SDS011;62987;52.382;9.752;2023-09-19T00:28:28;5.20;;;1.58;;
72559;SDS011;62987;52.382;9.752;2023-09-19T00:30:58;4.22;;;1.77;;
72559;SDS011;62987;52.382;9.752;2023-09-19T00:33:31;3.47;;;1.58;;
72559;SDS011;62987;52.382;9.752;2023-09-19T00:36:00;4.18;;;2.03;;
72559;SDS011;62987;52.382;9.752;2023-09-19T00:38:32;5.20;;;2.05;;
72559;SDS011;62987;52.382;9.752;2023-09-19T00:41:00;4.75;;;2.22;;
72559;SDS011;62987;52.382;9.752;2023-09-19T00:43:29;5.68;;;2.47;;
72559;SDS011;62987;52.382;9.752;2023-09-19T00:46:02;5.10;;;2.22;;
72559;SDS011;62987;52.382;9.752;2023-09-19T00:48:35;5.93;;;2.20;;
72559;SDS011;62987;52.382;9.752;2023-09-19T00:51:10;6.03;;;2.15;;
72559;SDS011;62987;52.382;9.752;2023-09-19T00:53:41;4.93;;;2.00;;
72559;SDS011;62987;52.382;9.752;2023-09-19T00:56:13;6.90;;;2.42;;
72559;SDS011;62987;52.382;9.752;2023-09-19T00:58:46;3.88;;;2.20;;
72559;SDS011;62987;52.382;9.752;2023-09-19T01:01:16;4.10;;;2.08;;
72559;SDS011;62987;52.382;9.752;2023-09-19T01:03:45;7.93;;;2.33;;
72559;SDS011;62987;52.382;9.752;2023-09-19T01:06:14;3.85;;;1.85;;
72559;SDS011;62987;52.382;9.752;2023-09-19T01:08:44;4.00;;;2.13;;
72559;SDS011;62987;52.382;9.752;2023-09-19T01:11:14;5.30;;;2.55;;
72559;SDS011;62987;52.382;9.752;2023-09-19T01:13:54;6.88;;;2.10;;
72559;SDS011;62987;52.382;9.752;2023-09-19T01:16:31;5.35;;;2.20;;
72559;SDS011;62987;52.382;9.752;2023-09-19T01:19:10;7.63;;;2.55;;
72559;SDS011;62987;52.382;9.752;2023-09-19T01:21:55;5.72;;;2.13;;
72559;SDS011;62987;52.382;9.752;2023-09-19T01:24:35;5.47;;;2.33;;
72559;SDS011;62987;52.382;9.752;2023-09-19T01:27:38;5.60;;;2.03;;
72559;SDS011;62987;52.382;9.752;2023-09-19T01:30:28;4.85;;;2.13;;
72559;SDS011;62987;52.382;9.752;2023-09-19T01:33:02;4.65;;;2.55;;
72559;SDS011;62987;52.382;9.752;2023-09-19T01:35:33;5.78;;;2.70;;
72559;SDS011;62987;52.382;9.752;2023-09-19T01:38:05;5.15;;;2.42;;
72559;SDS011;62987;52.382;9.752;2023-09-19T01:40:38;5.05;;;2.83;;
72559;SDS011;62987;52.382;9.752;2023-09-19T01:43:12;5.38;;;2.30;;
72559;SDS011;62987;52.382;9.752;2023-09-19T01:45:54;6.20;;;2.42;;
72559;SDS011;62987;52.382;9.752;2023-09-19T01:48:38;7.63;;;2.78;;
72559;SDS011;62987;52.382;9.752;2023-09-19T01:51:12;8.73;;;3.10;;
72559;SDS011;62987;52.382;9.752;2023-09-19T01:53:45;5.30;;;2.53;;
72559;SDS011;62987;52.382;9.752;2023-09-19T01:56:21;7.45;;;2.90;;
72559;SDS011;62987;52.382;9.752;2023-09-19T01:58:53;11.90;;;3.00;;
72559;SDS011;62987;52.382;9.752;2023-09-19T02:01:29;6.30;;;2.80;;
72559;SDS011;62987;52.382;9.752;2023-09-19T02:03:59;6.00;;;2.97;;
72559;SDS011;62987;52.382;9.752;2023-09-19T02:06:27;5.97;;;2.85;;
72559;SDS011;62987;52.382;9.752;2023-09-19T02:08:55;6.20;;;2.58;;
72559;SDS011;62987;52.382;9.752;2023-09-19T02:11:24;5.53;;;2.83;;
72559;SDS011;62987;52.382;9.752;2023-09-19T02:13:55;7.63;;;3.38;;
72559;SDS011;62987;52.382;9.752;2023-09-19T02:16:23;8.25;;;2.90;;
72559;SDS011;62987;52.382;9.752;2023-09-19T02:18:54;5.32;;;2.40;;
72559;SDS011;62987;52.382;9.752;2023-09-19T02:21:25;8.70;;;2.80;;
72559;SDS011;62987;52.382;9.752;2023-09-19T02:23:56;7.20;;;2.78;;
72559;SDS011;62987;52.382;9.752;2023-09-19T02:26:24;8.07;;;3.20;;
72559;SDS011;62987;52.382;9.752;2023-09-19T02:28:55;6.60;;;2.97;;
72559;SDS011;62987;52.382;9.752;2023-09-19T02:31:23;6.63;;;2.65;;
72559;SDS011;62987;52.382;9.752;2023-09-19T02:33:54;8.65;;;2.90;;
72559;SDS011;62987;52.382;9.752;2023-09-19T02:36:23;7.95;;;2.40;;
72559;SDS011;62987;52.382;9.752;2023-09-19T02:38:51;5.72;;;2.63;;
72559;SDS011;62987;52.382;9.752;2023-09-19T02:41:20;7.50;;;3.33;;
72559;SDS011;62987;52.382;9.752;2023-09-19T02:43:48;5.25;;;2.83;;
72559;SDS011;62987;52.382;9.752;2023-09-19T02:46:17;8.38;;;3.13;;
72559;SDS011;62987;52.382;9.752;2023-09-19T02:48:46;6.65;;;3.20;;
72559;SDS011;62987;52.382;9.752;2023-09-19T02:51:17;7.35;;;3.50;;
72559;SDS011;62987;52.382;9.752;2023-09-19T02:53:47;7.13;;;3.30;;
72559;SDS011;62987;52.382;9.752;2023-09-19T02:56:16;6.15;;;2.80;;
72559;SDS011;62987;52.382;9.752;2023-09-19T02:58:46;9.30;;;3.35;;
72559;SDS011;62987;52.382;9.752;2023-09-19T03:01:15;7.63;;;3.25;;
72559;SDS011;62987;52.382;9.752;2023-09-19T03:03:45;6.35;;;3.10;;
72559;SDS011;62987;52.382;9.752;2023-09-19T03:06:14;6.47;;;3.20;;
72559;SDS011;62987;52.382;9.752;2023-09-19T03:08:44;7.45;;;3.45;;
72559;SDS011;62987;52.382;9.752;2023-09-19T03:11:15;9.98;;;4.00;;
72559;SDS011;62987;52.382;9.752;2023-09-19T03:13:51;10.00;;;3.80;;
72559;SDS011;62987;52.382;9.752;2023-09-19T03:16:21;6.90;;;3.13;;
72559;SDS011;62987;52.382;9.752;2023-09-19T03:18:52;11.07;;;3.50;;
72559;SDS011;62987;52.382;9.752;2023-09-19T03:21:22;9.82;;;3.50;;
72559;SDS011;62987;52.382;9.752;2023-09-19T03:23:53;6.65;;;2.80;;
72559;SDS011;62987;52.382;9.752;2023-09-19T03:26:22;5.18;;;2.58;;
72559;SDS011;62987;52.382;9.752;2023-09-19T03:28:53;6.55;;;2.97;;
72559;SDS011;62987;52.382;9.752;2023-09-19T03:31:21;6.35;;;2.83;;
72559;SDS011;62987;52.382;9.752;2023-09-19T03:33:50;9.30;;;2.70;;
72559;SDS011;62987;52.382;9.752;2023-09-19T03:36:21;7.07;;;2.97;;
72559;SDS011;62987;52.382;9.752;2023-09-19T03:38:49;6.82;;;2.55;;
72559;SDS011;62987;52.382;9.752;2023-09-19T03:41:19;9.73;;;2.38;;
72559;SDS011;62987;52.382;9.752;2023-09-19T03:43:48;14.55;;;3.17;;
72559;SDS011;62987;52.382;9.752;2023-09-19T03:46:17;4.30;;;2.15;;
72559;SDS011;62987;52.382;9.752;2023-09-19T03:48:46;4.22;;;2.38;;
72559;SDS011;62987;52.382;9.752;2023-09-19T03:51:14;5.55;;;2.30;;
72559;SDS011;62987;52.382;9.752;2023-09-19T03:53:42;9.43;;;2.45;;
72559;SDS011;62987;52.382;9.752;2023-09-19T03:56:11;7.25;;;2.75;;
72559;SDS011;62987;52.382;9.752;2023-09-19T03:58:41;4.72;;;2.00;;
72559;SDS011;62987;52.382;9.752;2023-09-19T04:01:09;7.65;;;2.53;;
72559;SDS011;62987;52.382;9.752;2023-09-19T04:03:38;5.75;;;2.35;;
72559;SDS011;62987;52.382;9.752;2023-09-19T04:06:14;8.38;;;2.60;;
72559;SDS011;62987;52.382;9.752;2023-09-19T04:08:43;6.47;;;2.22;;
72559;SDS011;62987;52.382;9.752;2023-09-19T04:11:12;6.22;;;2.30;;
72559;SDS011;62987;52.382;9.752;2023-09-19T04:13:42;6.00;;;2.00;;
72559;SDS011;62987;52.382;9.752;2023-09-19T04:16:11;7.72;;;1.80;;
72559;SDS011;62987;52.382;9.752;2023-09-19T04:18:40;11.13;;;2.38;;
72559;SDS011;62987;52.382;9.752;2023-09-19T04:21:09;4.90;;;2.30;;
72559;SDS011;62987;52.382;9.752;2023-09-19T04:23:37;7.38;;;2.10;;
72559;SDS011;62987;52.382;9.752;2023-09-19T04:26:06;9.88;;;2.47;;
72559;SDS011;62987;52.382;9.752;2023-09-19T04:28:34;6.43;;;2.58;;
72559;SDS011;62987;52.382;9.752;2023-09-19T04:31:07;8.23;;;2.17;;
72559;SDS011;62987;52.382;9.752;2023-09-19T04:33:37;6.05;;;2.83;;
72559;SDS011;62987;52.382;9.752;2023-09-19T04:36:06;9.23;;;2.42;;
72559;SDS011;62987;52.382;9.752;2023-09-19T04:38:55;5.03;;;1.92;;
72559;SDS011;62987;52.382;9.752;2023-09-19T04:41:23;6.47;;;2.35;;
72559;SDS011;62987;52.382;9.752;2023-09-19T04:43:51;9.32;;;3.00;;
72559;SDS011;62987;52.382;9.752;2023-09-19T04:46:21;7.43;;;2.15;;
72559;SDS011;62987;52.382;9.752;2023-09-19T04:48:50;7.25;;;2.40;;
72559;SDS011;62987;52.382;9.752;2023-09-19T04:51:18;8.85;;;2.80;;
72559;SDS011;62987;52.382;9.752;2023-09-19T04:53:47;8.60;;;2.80;;
72559;SDS011;62987;52.382;9.752;2023-09-19T04:56:15;8.25;;;2.53;;
72559;SDS011;62987;52.382;9.752;2023-09-19T04:58:44;9.27;;;2.85;;
72559;SDS011;62987;52.382;9.752;2023-09-19T05:01:12;9.00;;;2.92;;
72559;SDS011;62987;52.382;9.752;2023-09-19T05:03:43;7.38;;;3.95;;
72559;SDS011;62987;52.382;9.752;2023-09-19T05:06:16;7.57;;;3.00;;
72559;SDS011;62987;52.382;9.752;2023-09-19T05:08:44;8.65;;;2.92;;
72559;SDS011;62987;52.382;9.752;2023-09-19T05:11:18;8.82;;;2.90;;
72559;SDS011;62987;52.382;9.752;2023-09-19T05:13:48;7.40;;;3.53;;
72559;SDS011;62987;52.382;9.752;2023-09-19T05:16:19;11.05;;;3.58;;
72559;SDS011;62987;52.382;9.752;2023-09-19T05:18:50;8.40;;;3.85;;
72559;SDS011;62987;52.382;9.752;2023-09-19T05:21:19;5.85;;;3.03;;
72559;SDS011;62987;52.382;9.752;2023-09-19T05:23:47;11.38;;;3.78;;
72559;SDS011;62987;52.382;9.752;2023-09-19T05:26:16;9.43;;;3.88;;
72559;SDS011;62987;52.382;9.752;2023-09-19T05:28:45;7.32;;;3.95;;
72559;SDS011;62987;52.382;9.752;2023-09-19T05:31:14;8.00;;;3.67;;
72559;SDS011;62987;52.382;9.752;2023-09-19T05:33:43;8.55;;;4.03;;
72559;SDS011;62987;52.382;9.752;2023-09-19T05:36:13;11.05;;;3.63;;
72559;SDS011;62987;52.382;9.752;2023-09-19T05:38:44;7.07;;;3.92;;
72559;SDS011;62987;52.382;9.752;2023-09-19T05:41:15;10.38;;;3.90;;
72559;SDS011;62987;52.382;9.752;2023-09-19T05:43:44;9.40;;;3.83;;
72559;SDS011;62987;52.382;9.752;2023-09-19T05:46:13;10.10;;;3.55;;
72559;SDS011;62987;52.382;9.752;2023-09-19T05:48:42;12.70;;;3.45;;
72559;SDS011;62987;52.382;9.752;2023-09-19T05:51:12;11.75;;;4.07;;
72559;SDS011;62987;52.382;9.752;2023-09-19T05:53:41;12.23;;;3.85;;
72559;SDS011;62987;52.382;9.752;2023-09-19T05:56:10;10.93;;;3.25;;
72559;SDS011;62987;52.382;9.752;2023-09-19T05:58:40;12.63;;;3.92;;
72559;SDS011;62987;52.382;9.752;2023-09-19T06:01:11;18.70;;;3.75;;
72559;SDS011;62987;52.382;9.752;2023-09-19T06:03:40;10.65;;;3.47;;
72559;SDS011;62987;52.382;9.752;2023-09-19T06:06:08;9.18;;;4.47;;
72559;SDS011;62987;52.382;9.752;2023-09-19T06:08:38;7.82;;;3.08;;
72559;SDS011;62987;52.382;9.752;2023-09-19T06:11:06;8.27;;;2.97;;
72559;SDS011;62987;52.382;9.752;2023-09-19T06:13:36;7.90;;;3.47;;
72559;SDS011;62987;52.382;9.752;2023-09-19T06:16:04;11.60;;;3.50;;
72559;SDS011;62987;52.382;9.752;2023-09-19T06:18:33;11.88;;;4.05;;
72559;SDS011;62987;52.382;9.752;2023-09-19T06:21:01;13.38;;;3.42;;
72559;SDS011;62987;52.382;9.752;2023-09-19T06:23:34;10.27;;;3.65;;
72559;SDS011;62987;52.382;9.752;2023-09-19T06:26:04;13.95;;;4.03;;
72559;SDS011;62987;52.382;9.752;2023-09-19T06:28:33;7.80;;;3.40;;
72559;SDS011;62987;52.382;9.752;2023-09-19T06:31:02;6.75;;;3.40;;
72559;SDS011;62987;52.382;9.752;2023-09-19T06:33:34;10.02;;;3.53;;
72559;SDS011;62987;52.382;9.752;2023-09-19T06:36:06;8.80;;;3.13;;
72559;SDS011;62987;52.382;9.752;2023-09-19T06:38:34;10.02;;;4.03;;
72559;SDS011;62987;52.382;9.752;2023-09-19T06:41:04;8.65;;;3.63;;
72559;SDS011;62987;52.382;9.752;2023-09-19T06:43:34;8.48;;;3.05;;
72559;SDS011;62987;52.382;9.752;2023-09-19T06:46:02;8.95;;;3.63;;
72559;SDS011;62987;52.382;9.752;2023-09-19T06:48:34;8.82;;;3.47;;
72559;SDS011;62987;52.382;9.752;2023-09-19T06:51:02;21.20;;;4.85;;
72559;SDS011;62987;52.382;9.752;2023-09-19T06:53:32;8.75;;;3.20;;
72559;SDS011;62987;52.382;9.752;2023-09-19T06:56:04;6.20;;;2.80;;
72559;SDS011;62987;52.382;9.752;2023-09-19T06:58:35;6.55;;;2.70;;
72559;SDS011;62987;52.382;9.752;2023-09-19T07:01:04;8.82;;;3.10;;
72559;SDS011;62987;52.382;9.752;2023-09-19T07:03:33;10.70;;;2.35;;
72559;SDS011;62987;52.382;9.752;2023-09-19T07:06:01;5.93;;;1.77;;
72559;SDS011;62987;52.382;9.752;2023-09-19T07:08:31;7.72;;;2.22;;
72559;SDS011;62987;52.382;9.752;2023-09-19T07:11:00;15.60;;;2.60;;
72559;SDS011;62987;52.382;9.752;2023-09-19T07:13:30;6.43;;;2.25;;
72559;SDS011;62987;52.382;9.752;2023-09-19T07:15:59;11.00;;;1.92;;
72559;SDS011;62987;52.382;9.752;2023-09-19T07:18:27;4.97;;;1.70;;
72559;SDS011;62987;52.382;9.752;2023-09-19T07:20:56;9.73;;;2.42;;
72559;SDS011;62987;52.382;9.752;2023-09-19T07:23:31;5.18;;;1.85;;
72559;SDS011;62987;52.382;9.752;2023-09-19T07:26:01;10.52;;;1.60;;
72559;SDS011;62987;52.382;9.752;2023-09-19T07:28:33;8.48;;;1.35;;
72559;SDS011;62987;52.382;9.752;2023-09-19T07:31:03;10.45;;;1.90;;
72559;SDS011;62987;52.382;9.752;2023-09-19T07:33:33;6.72;;;1.60;;
72559;SDS011;62987;52.382;9.752;2023-09-19T07:36:02;6.50;;;2.08;;
72559;SDS011;62987;52.382;9.752;2023-09-19T07:38:31;7.45;;;1.70;;
72559;SDS011;62987;52.382;9.752;2023-09-19T07:41:08;6.55;;;1.60;;
72559;SDS011;62987;52.382;9.752;2023-09-19T07:43:38;6.57;;;1.25;;
72559;SDS011;62987;52.382;9.752;2023-09-19T07:46:07;4.85;;;1.33;;
72559;SDS011;62987;52.382;9.752;2023-09-19T07:48:37;5.93;;;1.60;;
72559;SDS011;62987;52.382;9.752;2023-09-19T07:51:07;6.00;;;1.45;;
72559;SDS011;62987;52.382;9.752;2023-09-19T07:53:36;3.25;;;1.05;;
72559;SDS011;62987;52.382;9.752;2023-09-19T07:56:05;7.10;;;1.50;;
72559;SDS011;62987;52.382;9.752;2023-09-19T07:58:35;7.38;;;1.50;;
72559;SDS011;62987;52.382;9.752;2023-09-19T08:01:07;7.10;;;1.45;;
72559;SDS011;62987;52.382;9.752;2023-09-19T08:03:37;8.82;;;1.45;;
72559;SDS011;62987;52.382;9.752;2023-09-19T08:06:09;6.65;;;1.58;;
72559;SDS011;62987;52.382;9.752;2023-09-19T08:08:38;5.93;;;1.33;;
72559;SDS011;62987;52.382;9.752;2023-09-19T08:11:07;7.45;;;1.48;;
72559;SDS011;62987;52.382;9.752;2023-09-19T08:13:38;6.38;;;1.83;;
72559;SDS011;62987;52.382;9.752;2023-09-19T08:16:12;7.70;;;2.05;;
72559;SDS011;62987;52.382;9.752;2023-09-19T08:18:42;6.47;;;1.75;;
72559;SDS011;62987;52.382;9.752;2023-09-19T08:21:11;10.82;;;2.97;;
72559;SDS011;62987;52.382;9.752;2023-09-19T08:23:44;6.63;;;1.60;;
72559;SDS011;62987;52.382;9.752;2023-09-19T08:26:12;5.20;;;1.88;;
72559;SDS011;62987;52.382;9.752;2023-09-19T08:28:40;6.85;;;1.80;;
72559;SDS011;62987;52.382;9.752;2023-09-19T08:31:09;4.70;;;1.25;;
72559;SDS011;62987;52.382;9.752;2023-09-19T08:33:39;7.18;;;1.63;;
72559;SDS011;62987;52.382;9.752;2023-09-19T08:36:08;4.30;;;1.20;;
72559;SDS011;62987;52.382;9.752;2023-09-19T08:38:40;5.93;;;1.17;;
72559;SDS011;62987;52.382;9.752;2023-09-19T08:41:09;4.90;;;1.35;;
72559;SDS011;62987;52.382;9.752;2023-09-19T08:43:37;5.82;;;1.38;;
72559;SDS011;62987;52.382;9.752;2023-09-19T08:46:09;7.43;;;1.73;;
72559;SDS011;62987;52.382;9.752;2023-09-19T08:48:46;6.85;;;1.40;;
72559;SDS011;62987;52.382;9.752;2023-09-19T08:51:21;2.72;;;0.90;;
72559;SDS011;62987;52.382;9.752;2023-09-19T08:53:57;5.82;;;1.38;;
72559;SDS011;62987;52.382;9.752;2023-09-19T08:56:32;7.28;;;1.10;;
72559;SDS011;62987;52.382;9.752;2023-09-19T08:59:02;6.63;;;1.25;;
72559;SDS011;62987;52.382;9.752;2023-09-19T09:01:34;2.90;;;1.20;;
72559;SDS011;62987;52.382;9.752;2023-09-19T09:04:05;7.68;;;1.70;;
72559;SDS011;62987;52.382;9.752;2023-09-19T09:06:40;5.28;;;1.42;;
72559;SDS011;62987;52.382;9.752;2023-09-19T09:09:10;6.63;;;1.73;;
72559;SDS011;62987;52.382;9.752;2023-09-19T09:11:39;4.05;;;1.33;;
72559;SDS011;62987;52.382;9.752;2023-09-19T09:14:08;7.70;;;1.70;;
72559;SDS011;62987;52.382;9.752;2023-09-19T09:16:38;12.77;;;2.35;;
72559;SDS011;62987;52.382;9.752;2023-09-19T09:19:07;5.65;;;1.75;;
72559;SDS011;62987;52.382;9.752;2023-09-19T09:21:37;5.15;;;1.55;;
72559;SDS011;62987;52.382;9.752;2023-09-19T09:24:26;5.95;;;1.83;;
72559;SDS011;62987;52.382;9.752;2023-09-19T09:26:56;6.47;;;1.13;;
72559;SDS011;62987;52.382;9.752;2023-09-19T09:29:44;6.13;;;1.58;;
72559;SDS011;62987;52.382;9.752;2023-09-19T09:32:16;5.55;;;1.60;;
72559;SDS011;62987;52.382;9.752;2023-09-19T09:34:49;6.07;;;1.40;;
72559;SDS011;62987;52.382;9.752;2023-09-19T09:37:18;5.72;;;1.70;;
72559;SDS011;62987;52.382;9.752;2023-09-19T09:39:52;5.15;;;1.45;;
72559;SDS011;62987;52.382;9.752;2023-09-19T09:42:30;7.05;;;1.33;;
72559;SDS011;62987;52.382;9.752;2023-09-19T09:45:12;5.30;;;1.50;;
72559;SDS011;62987;52.382;9.752;2023-09-19T09:47:47;3.45;;;1.13;;
72559;SDS011;62987;52.382;9.752;2023-09-19T09:50:26;6.43;;;1.60;;
72559;SDS011;62987;52.382;9.752;2023-09-19T09:53:27;6.78;;;1.77;;
72559;SDS011;62987;52.382;9.752;2023-09-19T09:56:02;6.82;;;1.63;;
72559;SDS011;62987;52.382;9.752;2023-09-19T09:58:49;4.85;;;1.55;;
72559;SDS011;62987;52.382;9.752;2023-09-19T10:01:22;3.70;;;1.27;;
72559;SDS011;62987;52.382;9.752;2023-09-19T10:03:56;8.05;;;2.28;;
72559;SDS011;62987;52.382;9.752;2023-09-19T10:06:40;5.95;;;1.33;;
72559;SDS011;62987;52.382;9.752;2023-09-19T10:09:16;9.43;;;1.60;;
72559;SDS011;62987;52.382;9.752;2023-09-19T10:11:48;3.92;;;1.13;;
72559;SDS011;62987;52.382;9.752;2023-09-19T10:14:36;10.48;;;1.58;;
72559;SDS011;62987;52.382;9.752;2023-09-19T10:17:08;4.78;;;1.48;;
72559;SDS011;62987;52.382;9.752;2023-09-19T10:19:51;5.05;;;1.30;;
72559;SDS011;62987;52.382;9.752;2023-09-19T10:22:26;4.90;;;1.50;;
72559;SDS011;62987;52.382;9.752;2023-09-19T10:25:01;4.43;;;1.70;;
72559;SDS011;62987;52.382;9.752;2023-09-19T10:27:34;10.80;;;2.08;;
72559;SDS011;62987;52.382;9.752;2023-09-19T10:30:05;5.20;;;1.25;;
72559;SDS011;62987;52.382;9.752;2023-09-19T10:32:36;5.78;;;1.50;;
72559;SDS011;62987;52.382;9.752;2023-09-19T10:35:08;8.10;;;1.90;;
72559;SDS011;62987;52.382;9.752;2023-09-19T10:37:41;6.35;;;1.58;;
72559;SDS011;62987;52.382;9.752;2023-09-19T10:40:16;5.10;;;1.50;;
72559;SDS011;62987;52.382;9.752;2023-09-19T10:42:47;4.85;;;1.17;;
72559;SDS011;62987;52.382;9.752;2023-09-19T10:45:17;17.00;;;2.10;;
72559;SDS011;62987;52.382;9.752;2023-09-19T10:47:47;6.43;;;1.92;;
72559;SDS011;62987;52.382;9.752;2023-09-19T10:50:19;9.10;;;1.63;;
72559;SDS011;62987;52.382;9.752;2023-09-19T10:52:50;4.60;;;1.52;;
72559;SDS011;62987;52.382;9.752;2023-09-19T10:55:25;4.20;;;1.65;;
72559;SDS011;62987;52.382;9.752;2023-09-19T10:57:57;7.78;;;1.77;;
72559;SDS011;62987;52.382;9.752;2023-09-19T11:00:51;6.35;;;1.38;;
72559;SDS011;62987;52.382;9.752;2023-09-19T11:06:00;6.80;;;1.60;;
72559;SDS011;62987;52.382;9.752;2023-09-19T11:08:52;4.55;;;1.10;;
72559;SDS011;62987;52.382;9.752;2023-09-19T11:11:40;5.75;;;1.75;;
72559;SDS011;62987;52.382;9.752;2023-09-19T11:14:28;5.38;;;1.50;;
72559;SDS011;62987;52.382;9.752;2023-09-19T11:17:30;6.60;;;1.55;;
72559;SDS011;62987;52.382;9.752;2023-09-19T11:20:18;5.50;;;1.40;;
72559;SDS011;62987;52.382;9.752;2023-09-19T11:23:18;3.92;;;1.55;;
72559;SDS011;62987;52.382;9.752;2023-09-19T11:25:51;3.58;;;1.15;;
72559;SDS011;62987;52.382;9.752;2023-09-19T11:28:28;7.13;;;2.95;;
72559;SDS011;62987;52.382;9.752;2023-09-19T11:40:38;5.55;;;1.25;;
72559;SDS011;62987;52.382;9.752;2023-09-19T11:46:03;6.57;;;1.98;;
72559;SDS011;62987;52.382;9.752;2023-09-19T11:48:34;6.85;;;1.33;;
72559;SDS011;62987;52.382;9.752;2023-09-19T11:51:09;5.47;;;1.65;;
72559;SDS011;62987;52.382;9.752;2023-09-19T11:53:42;5.35;;;1.73;;
72559;SDS011;62987;52.382;9.752;2023-09-19T11:56:11;4.60;;;1.55;;
72559;SDS011;62987;52.382;9.752;2023-09-19T11:58:43;7.35;;;2.08;;
72559;SDS011;62987;52.382;9.752;2023-09-19T12:01:12;3.83;;;1.65;;
72559;SDS011;62987;52.382;9.752;2023-09-19T12:03:48;7.50;;;1.52;;
72559;SDS011;62987;52.382;9.752;2023-09-19T12:06:25;5.75;;;1.83;;
72559;SDS011;62987;52.382;9.752;2023-09-19T12:08:54;5.25;;;1.70;;
72559;SDS011;62987;52.382;9.752;2023-09-19T12:11:27;6.65;;;1.45;;
72559;SDS011;62987;52.382;9.752;2023-09-19T12:14:02;8.18;;;2.33;;
72559;SDS011;62987;52.382;9.752;2023-09-19T12:16:31;5.13;;;2.22;;
72559;SDS011;62987;52.382;9.752;2023-09-19T12:21:56;4.60;;;2.13;;
72559;SDS011;62987;52.382;9.752;2023-09-19T12:24:27;4.63;;;1.85;;
72559;SDS011;62987;52.382;9.752;2023-09-19T12:27:00;8.20;;;1.80;;
72559;SDS011;62987;52.382;9.752;2023-09-19T12:29:41;8.27;;;2.05;;
72559;SDS011;62987;52.382;9.752;2023-09-19T12:32:10;6.78;;;1.83;;
72559;SDS011;62987;52.382;9.752;2023-09-19T12:34:39;7.78;;;3.78;;
72559;SDS011;62987;52.382;9.752;2023-09-19T12:37:10;7.43;;;1.48;;
72559;SDS011;62987;52.382;9.752;2023-09-19T12:39:39;7.18;;;1.90;;
72559;SDS011;62987;52.382;9.752;2023-09-19T12:42:09;5.22;;;1.60;;
72559;SDS011;62987;52.382;9.752;2023-09-19T12:44:43;7.50;;;1.40;;
72559;SDS011;62987;52.382;9.752;2023-09-19T12:47:13;6.30;;;1.70;;
72559;SDS011;62987;52.382;9.752;2023-09-19T12:55:21;7.20;;;1.90;;
72559;SDS011;62987;52.382;9.752;2023-09-19T12:58:08;6.53;;;1.30;;
72559;SDS011;62987;52.382;9.752;2023-09-19T13:00:41;5.88;;;1.70;;
72559;SDS011;62987;52.382;9.752;2023-09-19T13:03:13;4.25;;;1.60;;
72559;SDS011;62987;52.382;9.752;2023-09-19T13:05:49;7.93;;;1.80;;
72559;SDS011;62987;52.382;9.752;2023-09-19T13:11:03;7.28;;;1.88;;
72559;SDS011;62987;52.382;9.752;2023-09-19T13:13:37;5.38;;;1.45;;
72559;SDS011;62987;52.382;9.752;2023-09-19T13:16:10;7.53;;;1.80;;
72559;SDS011;62987;52.382;9.752;2023-09-19T13:21:10;4.55;;;1.75;;
72559;SDS011;62987;52.382;9.752;2023-09-19T13:23:42;5.75;;;1.63;;
72559;SDS011;62987;52.382;9.752;2023-09-19T13:26:11;9.80;;;2.30;;
72559;SDS011;62987;52.382;9.752;2023-09-19T13:28:40;6.22;;;1.70;;
72559;SDS011;62987;52.382;9.752;2023-09-19T13:31:10;6.03;;;1.50;;
72559;SDS011;62987;52.382;9.752;2023-09-19T13:33:42;7.18;;;2.17;;
72559;SDS011;62987;52.382;9.752;2023-09-19T13:36:11;7.50;;;1.88;;
72559;SDS011;62987;52.382;9.752;2023-09-19T13:38:40;9.25;;;1.83;;
72559;SDS011;62987;52.382;9.752;2023-09-19T13:41:13;6.20;;;1.70;;
72559;SDS011;62987;52.382;9.752;2023-09-19T13:43:42;5.22;;;1.85;;
72559;SDS011;62987;52.382;9.752;2023-09-19T13:46:13;6.65;;;2.17;;
72559;SDS011;62987;52.382;9.752;2023-09-19T13:48:44;4.25;;;1.67;;
72559;SDS011;62987;52.382;9.752;2023-09-19T13:51:13;6.60;;;1.98;;
72559;SDS011;62987;52.382;9.752;2023-09-19T13:53:42;7.35;;;1.90;;
72559;SDS011;62987;52.382;9.752;2023-09-19T13:56:11;5.53;;;1.58;;
72559;SDS011;62987;52.382;9.752;2023-09-19T13:58:40;6.55;;;2.03;;
72559;SDS011;62987;52.382;9.752;2023-09-19T14:01:09;5.20;;;2.00;;
72559;SDS011;62987;52.382;9.752;2023-09-19T14:03:41;5.28;;;1.65;;
72559;SDS011;62987;52.382;9.752;2023-09-19T14:06:13;7.97;;;1.73;;
72559;SDS011;62987;52.382;9.752;2023-09-19T14:08:41;3.40;;;1.42;;
72559;SDS011;62987;52.382;9.752;2023-09-19T14:11:11;6.72;;;2.15;;
72559;SDS011;62987;52.382;9.752;2023-09-19T14:13:40;8.00;;;2.38;;
72559;SDS011;62987;52.382;9.752;2023-09-19T14:16:13;7.43;;;1.80;;
72559;SDS011;62987;52.382;9.752;2023-09-19T14:18:43;6.82;;;1.70;;
72559;SDS011;62987;52.382;9.752;2023-09-19T14:21:13;7.90;;;2.33;;
72559;SDS011;62987;52.382;9.752;2023-09-19T14:23:41;12.75;;;1.90;;
72559;SDS011;62987;52.382;9.752;2023-09-19T14:26:10;8.25;;;1.90;;
72559;SDS011;62987;52.382;9.752;2023-09-19T14:28:42;5.53;;;1.50;;
72559;SDS011;62987;52.382;9.752;2023-09-19T14:31:11;4.63;;;1.98;;
72559;SDS011;62987;52.382;9.752;2023-09-19T14:33:40;6.78;;;1.80;;
72559;SDS011;62987;52.382;9.752;2023-09-19T14:36:10;5.15;;;1.50;;
72559;SDS011;62987;52.382;9.752;2023-09-19T14:38:40;5.93;;;1.60;;
72559;SDS011;62987;52.382;9.752;2023-09-19T14:41:09;8.30;;;1.60;;
72559;SDS011;62987;52.382;9.752;2023-09-19T14:43:37;3.83;;;1.05;;
72559;SDS011;62987;52.382;9.752;2023-09-19T14:46:06;4.18;;;1.70;;
72559;SDS011;62987;52.382;9.752;2023-09-19T14:48:37;4.50;;;1.30;;
72559;SDS011;62987;52.382;9.752;2023-09-19T14:51:06;6.40;;;1.67;;
72559;SDS011;62987;52.382;9.752;2023-09-19T14:53:37;8.15;;;1.60;;
72559;SDS011;62987;52.382;9.752;2023-09-19T14:56:06;4.45;;;1.25;;
72559;SDS011;62987;52.382;9.752;2023-09-19T14:58:35;5.90;;;1.65;;
72559;SDS011;62987;52.382;9.752;2023-09-19T15:01:06;4.10;;;1.50;;
72559;SDS011;62987;52.382;9.752;2023-09-19T15:03:37;4.00;;;1.35;;
72559;SDS011;62987;52.382;9.752;2023-09-19T15:06:07;4.28;;;1.38;;
72559;SDS011;62987;52.382;9.752;2023-09-19T15:08:43;5.45;;;1.52;;
72559;SDS011;62987;52.382;9.752;2023-09-19T15:11:17;5.43;;;1.50;;
72559;SDS011;62987;52.382;9.752;2023-09-19T15:13:50;8.45;;;2.05;;
72559;SDS011;62987;52.382;9.752;2023-09-19T15:16:20;8.20;;;2.28;;
72559;SDS011;62987;52.382;9.752;2023-09-19T15:18:49;4.63;;;1.55;;
72559;SDS011;62987;52.382;9.752;2023-09-19T15:21:20;5.88;;;1.58;;
72559;SDS011;62987;52.382;9.752;2023-09-19T15:23:51;5.78;;;1.83;;
72559;SDS011;62987;52.382;9.752;2023-09-19T15:26:20;7.00;;;1.83;;
72559;SDS011;62987;52.382;9.752;2023-09-19T15:28:49;8.77;;;2.53;;
72559;SDS011;62987;52.382;9.752;2023-09-19T15:31:18;4.95;;;1.45;;
72559;SDS011;62987;52.382;9.752;2023-09-19T15:33:47;3.00;;;1.27;;
72559;SDS011;62987;52.382;9.752;2023-09-19T15:36:15;2.83;;;0.98;;
72559;SDS011;62987;52.382;9.752;2023-09-19T15:38:59;6.45;;;1.23;;
72559;SDS011;62987;52.382;9.752;2023-09-19T15:41:29;5.43;;;1.58;;